sensor_id;sensor_type;location;lat;lon;timestamp;pressure;altitude;pressure_sealevel;temperature;humidity
60355;BME280;46198;51.464;-0.066;2023-04-09T00:01:05;102443.28;;;8.48;100.00
60355;BME280;46198;51.464;-0.066;2023-04-09T00:03:34;102440.91;;;8.45;100.00
60355;BME280;46198;51.464;-0.066;2023-04-09T00:06:03;102444.47;;;8.45;100.00
60355;BME280;46198;51.464;-0.066;2023-04-09T00:08:32;102440.91;;;8.45;100.00
60355;BME280;46198;51.464;-0.066;2023-04-09T00:11:01;102439.38;;;8.42;100.00
60355;BME280;46198;51.464;-0.066;2023-04-09T00:13:29;102435.84;;;8.41;100.00
60355;BME280;46198;51.464;-0.066;2023-04-09T00:16:06;102433.78;;;8.43;100.00
60355;BME280;46198;51.464;-0.066;2023-04-09T00:18:34;102434.47;;;8.46;100.00
60355;BME280;46198;51.464;-0.066;2023-04-09T00:21:03;102441.75;;;8.45;100.00
60355;BME280;46198;51.464;-0.066;2023-04-09T00:23:33;102432.59;;;8.46;100.00
60355;BME280;46198;51.464;-0.066;2023-04-09T00:26:02;102433.13;;;8.50;100.00
60355;BME280;46198;51.464;-0.066;2023-04-09T00:28:30;102425.66;;;8.52;100.00
60355;BME280;46198;51.464;-0.066;2023-04-09T00:30:58;102428.03;;;8.55;100.00
60355;BME280;46198;51.464;-0.066;2023-04-09T00:33:26;102413.66;;;8.54;100.00
60355;BME280;46198;51.464;-0.066;2023-04-09T00:35:55;102409.97;;;8.55;100.00
60355;BME280;46198;51.464;-0.066;2023-04-09T00:38:23;102410.81;;;8.56;100.00
60355;BME280;46198;51.464;-0.066;2023-04-09T00:40:51;102404.91;;;8.60;100.00
60355;BME280;46198;51.464;-0.066;2023-04-09T00:43:20;102408.09;;;8.64;100.00
60355;BME280;46198;51.464;-0.066;2023-04-09T00:45:48;102407.91;;;8.65;100.00
60355;BME280;46198;51.464;-0.066;2023-04-09T00:48:17;102399.63;;;8.67;100.00
60355;BME280;46198;51.464;-0.066;2023-04-09T00:50:45;102396.09;;;8.67;100.00
60355;BME280;46198;51.464;-0.066;2023-04-09T00:53:13;102395.06;;;8.68;100.00
60355;BME280;46198;51.464;-0.066;2023-04-09T00:55:42;102394.91;;;8.69;100.00
60355;BME280;46198;51.464;-0.066;2023-04-09T00:58:12;102392.34;;;8.68;100.00
60355;BME280;46198;51.464;-0.066;2023-04-09T01:00:42;102391.50;;;8.67;100.00
60355;BME280;46198;51.464;-0.066;2023-04-09T01:03:10;102391.66;;;8.65;100.00
60355;BME280;46198;51.464;-0.066;2023-04-09T01:05:43;102393.53;;;8.65;100.00
60355;BME280;46198;51.464;-0.066;2023-04-09T01:08:18;102381.84;;;8.56;100.00
60355;BME280;46198;51.464;-0.066;2023-04-09T01:10:58;102376.28;;;8.58;100.00
60355;BME280;46198;51.464;-0.066;2023-04-09T01:13:36;102381.03;;;8.56;100.00
60355;BME280;46198;51.464;-0.066;2023-04-09T01:16:09;102371.19;;;8.55;100.00
60355;BME280;46198;51.464;-0.066;2023-04-09T01:18:41;102373.88;;;8.47;100.00
60355;BME280;46198;51.464;-0.066;2023-04-09T01:21:12;102372.56;;;8.51;100.00
60355;BME280;46198;51.464;-0.066;2023-04-09T01:23:46;102371.88;;;8.49;100.00
60355;BME280;46198;51.464;-0.066;2023-04-09T01:26:26;102370.53;;;8.45;100.00
60355;BME280;46198;51.464;-0.066;2023-04-09T01:29:02;102370.53;;;8.45;100.00
60355;BME280;46198;51.464;-0.066;2023-04-09T01:31:31;102369.47;;;8.37;100.00
60355;BME280;46198;51.464;-0.066;2023-04-09T01:34:01;102366.41;;;8.32;100.00
60355;BME280;46198;51.464;-0.066;2023-04-09T01:36:30;102369.44;;;8.29;100.00
60355;BME280;46198;51.464;-0.066;2023-04-09T01:39:00;102364.72;;;8.31;100.00
60355;BME280;46198;51.464;-0.066;2023-04-09T01:41:31;102365.06;;;8.28;100.00
60355;BME280;46198;51.464;-0.066;2023-04-09T01:44:03;102361.66;;;8.26;100.00
60355;BME280;46198;51.464;-0.066;2023-04-09T01:46:32;102362.84;;;8.24;100.00
60355;BME280;46198;51.464;-0.066;2023-04-09T01:49:02;102366.41;;;8.24;100.00
60355;BME280;46198;51.464;-0.066;2023-04-09T01:51:31;102359.66;;;8.20;100.00
60355;BME280;46198;51.464;-0.066;2023-04-09T01:54:00;102369.56;;;8.11;100.00
60355;BME280;46198;51.464;-0.066;2023-04-09T01:56:38;102374.84;;;8.13;100.00
60355;BME280;46198;51.464;-0.066;2023-04-09T01:59:08;102367.06;;;8.10;100.00
60355;BME280;46198;51.464;-0.066;2023-04-09T02:01:39;102360.59;;;8.03;100.00
60355;BME280;46198;51.464;-0.066;2023-04-09T02:04:35;102365.03;;;8.04;100.00
60355;BME280;46198;51.464;-0.066;2023-04-09T02:07:09;102363.16;;;8.04;100.00
60355;BME280;46198;51.464;-0.066;2023-04-09T02:09:40;102359.06;;;8.00;100.00
60355;BME280;46198;51.464;-0.066;2023-04-09T02:12:16;102358.91;;;7.93;100.00
60355;BME280;46198;51.464;-0.066;2023-04-09T02:14:47;102356.34;;;7.92;100.00
60355;BME280;46198;51.464;-0.066;2023-04-09T02:17:17;102353.66;;;7.92;100.00
60355;BME280;46198;51.464;-0.066;2023-04-09T02:19:46;102357.53;;;7.89;100.00
60355;BME280;46198;51.464;-0.066;2023-04-09T02:22:15;102359.72;;;7.86;100.00
60355;BME280;46198;51.464;-0.066;2023-04-09T02:24:45;102360.75;;;7.85;100.00
60355;BME280;46198;51.464;-0.066;2023-04-09T02:27:13;102351.59;;;7.86;100.00
60355;BME280;46198;51.464;-0.066;2023-04-09T02:29:42;102347.34;;;7.75;100.00
60355;BME280;46198;51.464;-0.066;2023-04-09T02:32:12;102349.03;;;7.76;100.00
60355;BME280;46198;51.464;-0.066;2023-04-09T02:34:40;102349.69;;;7.70;100.00
60355;BME280;46198;51.464;-0.066;2023-04-09T02:41:34;102342.59;;;7.69;100.00
60355;BME280;46198;51.464;-0.066;2023-04-09T02:44:02;102335.50;;;7.68;100.00
60355;BME280;46198;51.464;-0.066;2023-04-09T02:46:30;102336.84;;;7.64;100.00
60355;BME280;46198;51.464;-0.066;2023-04-09T02:49:00;102333.28;;;7.63;100.00
60355;BME280;46198;51.464;-0.066;2023-04-09T02:51:28;102330.41;;;7.65;100.00
60355;BME280;46198;51.464;-0.066;2023-04-09T02:54:21;102329.06;;;7.61;100.00
60355;BME280;46198;51.464;-0.066;2023-04-09T02:56:50;102325.16;;;7.55;100.00
60355;BME280;46198;51.464;-0.066;2023-04-09T02:59:18;102321.44;;;7.56;100.00
60355;BME280;46198;51.464;-0.066;2023-04-09T03:01:46;102322.94;;;7.50;100.00
60355;BME280;46198;51.464;-0.066;2023-04-09T03:04:15;102328.66;;;7.47;100.00
60355;BME280;46198;51.464;-0.066;2023-04-09T03:06:43;102327.81;;;7.47;100.00
60355;BME280;46198;51.464;-0.066;2023-04-09T03:09:12;102323.25;;;7.47;100.00
60355;BME280;46198;51.464;-0.066;2023-04-09T03:11:40;102326.97;;;7.46;100.00
60355;BME280;46198;51.464;-0.066;2023-04-09T03:14:08;102319.19;;;7.43;100.00
60355;BME280;46198;51.464;-0.066;2023-04-09T03:16:36;102320.53;;;7.39;100.00
60355;BME280;46198;51.464;-0.066;2023-04-09T03:19:04;102317.13;;;7.37;100.00
60355;BME280;46198;51.464;-0.066;2023-04-09T03:21:33;102319.00;;;7.37;100.00
60355;BME280;46198;51.464;-0.066;2023-04-09T03:24:01;102311.22;;;7.33;100.00
60355;BME280;46198;51.464;-0.066;2023-04-09T03:26:30;102311.53;;;7.30;100.00
60355;BME280;46198;51.464;-0.066;2023-04-09T03:29:04;102315.56;;;7.26;100.00
60355;BME280;46198;51.464;-0.066;2023-04-09T03:31:33;102308.84;;;7.30;100.00
60355;BME280;46198;51.464;-0.066;2023-04-09T03:34:01;102303.06;;;7.25;100.00
60355;BME280;46198;51.464;-0.066;2023-04-09T03:36:31;102313.66;;;7.19;100.00
60355;BME280;46198;51.464;-0.066;2023-04-09T03:39:03;102299.69;;;7.23;100.00
60355;BME280;46198;51.464;-0.066;2023-04-09T03:41:37;102304.56;;;7.20;100.00
60355;BME280;46198;51.464;-0.066;2023-04-09T03:44:09;102301.00;;;7.19;100.00
60355;BME280;46198;51.464;-0.066;2023-04-09T03:46:56;102309.44;;;7.16;100.00
60355;BME280;46198;51.464;-0.066;2023-04-09T03:49:25;102315.72;;;7.17;100.00
60355;BME280;46198;51.464;-0.066;2023-04-09T03:51:56;102308.91;;;7.13;100.00
60355;BME280;46198;51.464;-0.066;2023-04-09T03:54:34;102306.22;;;7.13;100.00
60355;BME280;46198;51.464;-0.066;2023-04-09T03:57:05;102301.28;;;7.08;100.00
60355;BME280;46198;51.464;-0.066;2023-04-09T03:59:36;102303.00;;;7.09;100.00
60355;BME280;46198;51.464;-0.066;2023-04-09T04:02:05;102305.69;;;7.09;100.00
60355;BME280;46198;51.464;-0.066;2023-04-09T04:04:37;102308.41;;;7.09;100.00
60355;BME280;46198;51.464;-0.066;2023-04-09T04:07:08;102313.09;;;7.07;100.00
60355;BME280;46198;51.464;-0.066;2023-04-09T04:09:45;102310.22;;;7.00;100.00
60355;BME280;46198;51.464;-0.066;2023-04-09T04:12:16;102314.28;;;7.04;100.00
60355;BME280;46198;51.464;-0.066;2023-04-09T04:14:59;102303.78;;;7.01;100.00
60355;BME280;46198;51.464;-0.066;2023-04-09T04:17:36;102304.81;;;7.00;100.00
60355;BME280;46198;51.464;-0.066;2023-04-09T04:20:12;102308.50;;;6.99;100.00
60355;BME280;46198;51.464;-0.066;2023-04-09T04:22:52;102310.22;;;7.00;100.00
60355;BME280;46198;51.464;-0.066;2023-04-09T04:25:23;102312.22;;;6.98;100.00
60355;BME280;46198;51.464;-0.066;2023-04-09T04:27:52;102313.22;;;6.97;100.00
60355;BME280;46198;51.464;-0.066;2023-04-09T04:30:24;102301.09;;;7.01;100.00
60355;BME280;46198;51.464;-0.066;2023-04-09T04:33:02;102300.25;;;7.01;100.00
60355;BME280;46198;51.464;-0.066;2023-04-09T04:35:38;102307.66;;;6.99;100.00
60355;BME280;46198;51.464;-0.066;2023-04-09T04:38:13;102307.66;;;6.99;100.00
60355;BME280;46198;51.464;-0.066;2023-04-09T04:40:42;102304.13;;;6.98;100.00
60355;BME280;46198;51.464;-0.066;2023-04-09T04:43:11;102301.41;;;6.98;100.00
60355;BME280;46198;51.464;-0.066;2023-04-09T04:45:39;102301.41;;;6.98;100.00
60355;BME280;46198;51.464;-0.066;2023-04-09T04:48:10;102303.09;;;6.99;100.00
60355;BME280;46198;51.464;-0.066;2023-04-09T04:50:38;102303.09;;;6.99;100.00
60355;BME280;46198;51.464;-0.066;2023-04-09T04:53:08;102305.09;;;6.97;100.00
60355;BME280;46198;51.464;-0.066;2023-04-09T04:55:45;102303.56;;;6.95;100.00
60355;BME280;46198;51.464;-0.066;2023-04-09T04:58:19;102302.06;;;6.92;100.00
60355;BME280;46198;51.464;-0.066;2023-04-09T05:00:52;102305.75;;;6.91;100.00
60355;BME280;46198;51.464;-0.066;2023-04-09T05:03:20;102300.69;;;6.88;100.00
60355;BME280;46198;51.464;-0.066;2023-04-09T05:05:55;102302.69;;;6.86;100.00
60355;BME280;46198;51.464;-0.066;2023-04-09T05:08:27;102307.72;;;6.81;100.00
60355;BME280;46198;51.464;-0.066;2023-04-09T05:10:58;102295.94;;;6.82;100.00
60355;BME280;46198;51.464;-0.066;2023-04-09T05:13:32;102295.56;;;6.77;100.00
60355;BME280;46198;51.464;-0.066;2023-04-09T05:16:05;102294.84;;;6.75;100.00
60355;BME280;46198;51.464;-0.066;2023-04-09T05:18:35;102300.56;;;6.72;100.00
60355;BME280;46198;51.464;-0.066;2023-04-09T05:21:04;102297.19;;;6.70;100.00
60355;BME280;46198;51.464;-0.066;2023-04-09T05:23:33;102290.41;;;6.65;100.00
60355;BME280;46198;51.464;-0.066;2023-04-09T05:26:02;102288.03;;;6.62;100.00
60355;BME280;46198;51.464;-0.066;2023-04-09T05:28:44;102291.91;;;6.60;100.00
60355;BME280;46198;51.464;-0.066;2023-04-09T05:31:16;102281.25;;;6.58;100.00
60355;BME280;46198;51.464;-0.066;2023-04-09T05:37:38;102275.78;;;6.50;100.00
60355;BME280;46198;51.464;-0.066;2023-04-09T05:40:08;102274.94;;;6.50;100.00
60355;BME280;46198;51.464;-0.066;2023-04-09T05:42:38;102283.03;;;6.50;100.00
60355;BME280;46198;51.464;-0.066;2023-04-09T05:45:14;102275.78;;;6.50;100.00
60355;BME280;46198;51.464;-0.066;2023-04-09T05:47:47;102278.50;;;6.50;100.00
60355;BME280;46198;51.464;-0.066;2023-04-09T05:50:18;102282.66;;;6.44;100.00
60355;BME280;46198;51.464;-0.066;2023-04-09T05:52:49;102284.91;;;6.49;100.00
60355;BME280;46198;51.464;-0.066;2023-04-09T05:55:18;102279.66;;;6.48;100.00
60355;BME280;46198;51.464;-0.066;2023-04-09T05:57:53;102279.44;;;6.41;100.00
60355;BME280;46198;51.464;-0.066;2023-04-09T06:00:22;102279.28;;;6.42;100.00
60355;BME280;46198;51.464;-0.066;2023-04-09T06:02:50;102290.06;;;6.42;100.00
60355;BME280;46198;51.464;-0.066;2023-04-09T06:05:18;102283.81;;;6.42;100.00
60355;BME280;46198;51.464;-0.066;2023-04-09T06:07:47;102287.22;;;6.44;100.00
60355;BME280;46198;51.464;-0.066;2023-04-09T06:10:15;102285.22;;;6.46;100.00
60355;BME280;46198;51.464;-0.066;2023-04-09T06:12:44;102292.13;;;6.49;100.00
60355;BME280;46198;51.464;-0.066;2023-04-09T06:15:14;102290.31;;;6.49;100.00
60355;BME280;46198;51.464;-0.066;2023-04-09T06:17:42;102283.44;;;6.55;100.00
60355;BME280;46198;51.464;-0.066;2023-04-09T06:20:10;102283.44;;;6.55;100.00
60355;BME280;46198;51.464;-0.066;2023-04-09T06:22:38;102284.59;;;6.52;100.00
60355;BME280;46198;51.464;-0.066;2023-04-09T06:25:07;102291.97;;;6.50;100.00
60355;BME280;46198;51.464;-0.066;2023-04-09T06:27:35;102294.22;;;6.55;100.00
60355;BME280;46198;51.464;-0.066;2023-04-09T06:30:04;102292.75;;;6.60;100.00
60355;BME280;46198;51.464;-0.066;2023-04-09T06:32:33;102297.81;;;6.63;100.00
60355;BME280;46198;51.464;-0.066;2023-04-09T06:35:17;102286.69;;;6.66;100.00
60355;BME280;46198;51.464;-0.066;2023-04-09T06:38:09;102282.00;;;6.69;100.00
60355;BME280;46198;51.464;-0.066;2023-04-09T06:40:38;102281.81;;;6.70;100.00
60355;BME280;46198;51.464;-0.066;2023-04-09T06:43:07;102279.66;;;6.74;100.00
60355;BME280;46198;51.464;-0.066;2023-04-09T06:45:41;102282.94;;;6.85;100.00
60355;BME280;46198;51.464;-0.066;2023-04-09T06:48:10;102278.19;;;6.79;100.00
60355;BME280;46198;51.464;-0.066;2023-04-09T06:50:38;102272.59;;;6.81;100.00
60355;BME280;46198;51.464;-0.066;2023-04-09T06:53:06;102270.13;;;6.87;100.00
60355;BME280;46198;51.464;-0.066;2023-04-09T06:55:34;102268.28;;;6.88;100.00
60355;BME280;46198;51.464;-0.066;2023-04-09T06:58:02;102262.22;;;6.94;100.00
60355;BME280;46198;51.464;-0.066;2023-04-09T07:00:31;102262.22;;;6.94;100.00
60355;BME280;46198;51.464;-0.066;2023-04-09T07:02:59;102258.88;;;6.92;100.00
60355;BME280;46198;51.464;-0.066;2023-04-09T07:05:29;102257.19;;;6.99;100.00
60355;BME280;46198;51.464;-0.066;2023-04-09T07:07:57;102255.28;;;6.92;100.00
60355;BME280;46198;51.464;-0.066;2023-04-09T07:10:25;102259.06;;;6.99;100.00
60355;BME280;46198;51.464;-0.066;2023-04-09T07:12:53;102257.41;;;7.06;100.00
60355;BME280;46198;51.464;-0.066;2023-04-09T07:15:21;102258.94;;;7.08;100.00
60355;BME280;46198;51.464;-0.066;2023-04-09T07:17:50;102268.09;;;7.24;100.00
60355;BME280;46198;51.464;-0.066;2023-04-09T07:20:18;102265.97;;;7.36;100.00
60355;BME280;46198;51.464;-0.066;2023-04-09T07:22:47;102264.97;;;7.45;100.00
60355;BME280;46198;51.464;-0.066;2023-04-09T07:25:15;102259.69;;;7.35;100.00
60355;BME280;46198;51.464;-0.066;2023-04-09T07:27:43;102259.44;;;7.54;100.00
60355;BME280;46198;51.464;-0.066;2023-04-09T07:30:11;102250.69;;;7.69;100.00
60355;BME280;46198;51.464;-0.066;2023-04-09T07:32:40;102249.00;;;7.84;100.00
60355;BME280;46198;51.464;-0.066;2023-04-09T07:35:08;102244.13;;;7.80;100.00
60355;BME280;46198;51.464;-0.066;2023-04-09T07:40:56;102233.81;;;8.24;100.00
60355;BME280;46198;51.464;-0.066;2023-04-09T07:43:24;102232.97;;;8.48;100.00
60355;BME280;46198;51.464;-0.066;2023-04-09T07:45:52;102234.66;;;8.41;100.00
60355;BME280;46198;51.464;-0.066;2023-04-09T07:48:21;102234.97;;;8.38;100.00
60355;BME280;46198;51.464;-0.066;2023-04-09T07:50:49;102240.59;;;8.45;100.00
60355;BME280;46198;51.464;-0.066;2023-04-09T07:53:18;102232.97;;;8.48;100.00
60355;BME280;46198;51.464;-0.066;2023-04-09T07:55:46;102241.44;;;8.45;100.00
60355;BME280;46198;51.464;-0.066;2023-04-09T07:58:16;102245.47;;;8.49;100.00
60355;BME280;46198;51.464;-0.066;2023-04-09T08:00:44;102245.63;;;8.64;100.00
60355;BME280;46198;51.464;-0.066;2023-04-09T08:03:12;102257.13;;;8.74;100.00
60355;BME280;46198;51.464;-0.066;2023-04-09T08:05:41;102253.00;;;8.95;100.00
60355;BME280;46198;51.464;-0.066;2023-04-09T08:08:08;102247.25;;;9.37;100.00
60355;BME280;46198;51.464;-0.066;2023-04-09T08:10:37;102242.88;;;9.59;100.00
60355;BME280;46198;51.464;-0.066;2023-04-09T08:13:05;102245.19;;;9.70;100.00
60355;BME280;46198;51.464;-0.066;2023-04-09T08:15:36;102244.03;;;9.88;100.00
60355;BME280;46198;51.464;-0.066;2023-04-09T08:18:04;102248.63;;;10.10;100.00
60355;BME280;46198;51.464;-0.066;2023-04-09T08:20:32;102261.19;;;10.34;100.00
60355;BME280;46198;51.464;-0.066;2023-04-09T08:23:00;102252.47;;;10.39;100.00
60355;BME280;46198;51.464;-0.066;2023-04-09T08:25:28;102261.16;;;10.87;100.00
60355;BME280;46198;51.464;-0.066;2023-04-09T08:27:56;102248.22;;;11.19;100.00
60355;BME280;46198;51.464;-0.066;2023-04-09T08:30:24;102243.84;;;11.39;100.00
60355;BME280;46198;51.464;-0.066;2023-04-09T08:32:53;102230.28;;;11.61;100.00
60355;BME280;46198;51.464;-0.066;2023-04-09T08:35:21;102237.28;;;11.48;100.00
60355;BME280;46198;51.464;-0.066;2023-04-09T08:37:50;102239.50;;;11.60;100.00
60355;BME280;46198;51.464;-0.066;2023-04-09T08:40:18;102235.88;;;11.89;100.00
60355;BME280;46198;51.464;-0.066;2023-04-09T08:42:50;102235.75;;;11.61;100.00
60355;BME280;46198;51.464;-0.066;2023-04-09T08:45:20;102236.88;;;11.88;100.00
60355;BME280;46198;51.464;-0.066;2023-04-09T08:47:49;102232.53;;;12.15;100.00
60355;BME280;46198;51.464;-0.066;2023-04-09T08:50:21;102234.19;;;12.66;100.00
60355;BME280;46198;51.464;-0.066;2023-04-09T08:52:49;102228.59;;;12.46;100.00
60355;BME280;46198;51.464;-0.066;2023-04-09T08:55:17;102210.78;;;12.78;100.00
60355;BME280;46198;51.464;-0.066;2023-04-09T08:57:45;102211.69;;;12.92;100.00
60355;BME280;46198;51.464;-0.066;2023-04-09T09:00:13;102217.03;;;12.72;100.00
60355;BME280;46198;51.464;-0.066;2023-04-09T09:03:03;102213.19;;;13.36;100.00
60355;BME280;46198;51.464;-0.066;2023-04-09T09:05:37;102217.59;;;12.95;100.00
60355;BME280;46198;51.464;-0.066;2023-04-09T09:08:06;102218.88;;;13.47;100.00
60355;BME280;46198;51.464;-0.066;2023-04-09T09:10:39;102212.88;;;13.65;100.00
60355;BME280;46198;51.464;-0.066;2023-04-09T09:13:18;102212.91;;;14.12;100.00
60355;BME280;46198;51.464;-0.066;2023-04-09T09:15:47;102211.66;;;14.14;100.00
60355;BME280;46198;51.464;-0.066;2023-04-09T09:18:16;102207.00;;;14.22;100.00
60355;BME280;46198;51.464;-0.066;2023-04-09T09:20:46;102199.44;;;14.30;100.00
60355;BME280;46198;51.464;-0.066;2023-04-09T09:23:14;102205.34;;;14.34;100.00
60355;BME280;46198;51.464;-0.066;2023-04-09T09:25:42;102208.06;;;14.74;100.00
60355;BME280;46198;51.464;-0.066;2023-04-09T09:28:11;102200.06;;;14.66;100.00
60355;BME280;46198;51.464;-0.066;2023-04-09T09:30:39;102208.34;;;15.11;100.00
60355;BME280;46198;51.464;-0.066;2023-04-09T09:33:08;102202.28;;;15.85;100.00
60355;BME280;46198;51.464;-0.066;2023-04-09T09:35:49;102216.66;;;15.74;100.00
60355;BME280;46198;51.464;-0.066;2023-04-09T09:38:17;102218.47;;;15.48;100.00
60355;BME280;46198;51.464;-0.066;2023-04-09T09:40:46;102203.00;;;15.29;100.00
60355;BME280;46198;51.464;-0.066;2023-04-09T09:43:14;102196.13;;;15.58;100.00
60355;BME280;46198;51.464;-0.066;2023-04-09T09:45:43;102200.47;;;15.34;100.00
60355;BME280;46198;51.464;-0.066;2023-04-09T09:48:14;102189.63;;;15.52;100.00
60355;BME280;46198;51.464;-0.066;2023-04-09T09:50:43;102190.06;;;14.98;100.00
60355;BME280;46198;51.464;-0.066;2023-04-09T09:53:13;102181.03;;;15.42;100.00
60355;BME280;46198;51.464;-0.066;2023-04-09T09:55:47;102172.97;;;15.54;100.00
60355;BME280;46198;51.464;-0.066;2023-04-09T09:58:21;102185.72;;;15.35;100.00
60355;BME280;46198;51.464;-0.066;2023-04-09T10:00:51;102195.19;;;15.33;100.00
60355;BME280;46198;51.464;-0.066;2023-04-09T10:03:21;102184.88;;;15.28;100.00
60355;BME280;46198;51.464;-0.066;2023-04-09T10:05:50;102182.75;;;15.37;100.00
60355;BME280;46198;51.464;-0.066;2023-04-09T10:08:20;102190.47;;;15.53;100.00
60355;BME280;46198;51.464;-0.066;2023-04-09T10:10:51;102190.66;;;15.51;100.00
60355;BME280;46198;51.464;-0.066;2023-04-09T10:13:25;102180.47;;;15.65;100.00
60355;BME280;46198;51.464;-0.066;2023-04-09T10:15:57;102175.25;;;15.25;100.00
60355;BME280;46198;51.464;-0.066;2023-04-09T10:18:26;102180.56;;;15.52;100.00
60355;BME280;46198;51.464;-0.066;2023-04-09T10:20:57;102168.41;;;15.41;100.00
60355;BME280;46198;51.464;-0.066;2023-04-09T10:23:32;102168.22;;;15.36;100.00
60355;BME280;46198;51.464;-0.066;2023-04-09T10:26:03;102157.56;;;15.60;100.00
60355;BME280;46198;51.464;-0.066;2023-04-09T10:28:32;102159.09;;;15.49;100.00
60355;BME280;46198;51.464;-0.066;2023-04-09T10:31:03;102157.81;;;15.51;100.00
60355;BME280;46198;51.464;-0.066;2023-04-09T10:33:31;102156.56;;;15.86;100.00
60355;BME280;46198;51.464;-0.066;2023-04-09T10:36:01;102153.16;;;16.15;100.00
60355;BME280;46198;51.464;-0.066;2023-04-09T10:38:38;102153.75;;;16.17;100.00
60355;BME280;46198;51.464;-0.066;2023-04-09T10:41:14;102151.28;;;15.84;100.00
60355;BME280;46198;51.464;-0.066;2023-04-09T10:43:42;102137.81;;;16.08;100.00
60355;BME280;46198;51.464;-0.066;2023-04-09T10:46:27;102129.47;;;16.21;100.00
60355;BME280;46198;51.464;-0.066;2023-04-09T10:49:10;102126.34;;;16.17;100.00
60355;BME280;46198;51.464;-0.066;2023-04-09T10:51:39;102125.47;;;15.99;100.00
60355;BME280;46198;51.464;-0.066;2023-04-09T10:57:51;102118.78;;;15.94;95.14
60355;BME280;46198;51.464;-0.066;2023-04-09T11:00:20;102113.63;;;16.05;95.13
60355;BME280;46198;51.464;-0.066;2023-04-09T11:03:18;102110.63;;;16.06;90.26
60355;BME280;46198;51.464;-0.066;2023-04-09T11:05:50;102119.22;;;15.91;90.58
60355;BME280;46198;51.464;-0.066;2023-04-09T11:08:19;102108.94;;;16.30;94.45
60355;BME280;46198;51.464;-0.066;2023-04-09T11:10:48;102108.94;;;16.30;89.57
60355;BME280;46198;51.464;-0.066;2023-04-09T11:13:19;102118.06;;;16.24;91.01
60355;BME280;46198;51.464;-0.066;2023-04-09T11:15:47;102114.41;;;16.30;90.53
60355;BME280;46198;51.464;-0.066;2023-04-09T11:18:19;102109.53;;;16.32;86.23
60355;BME280;46198;51.464;-0.066;2023-04-09T11:20:47;102101.81;;;16.48;83.67
60355;BME280;46198;51.464;-0.066;2023-04-09T11:23:16;102102.84;;;16.47;82.37
60355;BME280;46198;51.464;-0.066;2023-04-09T11:25:48;102091.41;;;16.68;88.36
60355;BME280;46198;51.464;-0.066;2023-04-09T11:28:19;102088.53;;;16.81;88.11
60355;BME280;46198;51.464;-0.066;2023-04-09T11:30:49;102087.84;;;16.86;86.97
60355;BME280;46198;51.464;-0.066;2023-04-09T11:33:18;102081.16;;;16.82;85.00
60355;BME280;46198;51.464;-0.066;2023-04-09T11:35:46;102077.03;;;16.54;80.58
60355;BME280;46198;51.464;-0.066;2023-04-09T11:38:15;102077.34;;;17.13;78.61
60355;BME280;46198;51.464;-0.066;2023-04-09T11:40:43;102064.75;;;17.36;70.99
60355;BME280;46198;51.464;-0.066;2023-04-09T11:43:15;102072.19;;;17.47;64.87
60355;BME280;46198;51.464;-0.066;2023-04-09T11:45:45;102054.06;;;17.69;70.36
60355;BME280;46198;51.464;-0.066;2023-04-09T11:48:15;102061.19;;;17.59;61.62
60355;BME280;46198;51.464;-0.066;2023-04-09T11:50:44;102049.63;;;17.03;54.17
60355;BME280;46198;51.464;-0.066;2023-04-09T11:53:19;102056.56;;;17.59;56.11
60355;BME280;46198;51.464;-0.066;2023-04-09T11:55:49;102052.50;;;17.73;54.58
60355;BME280;46198;51.464;-0.066;2023-04-09T11:58:21;102055.53;;;17.84;52.34
60355;BME280;46198;51.464;-0.066;2023-04-09T12:00:53;102051.22;;;17.88;54.41
60355;BME280;46198;51.464;-0.066;2023-04-09T12:03:29;102039.25;;;18.17;52.13
60355;BME280;46198;51.464;-0.066;2023-04-09T12:06:00;102042.09;;;18.34;51.74
60355;BME280;46198;51.464;-0.066;2023-04-09T12:08:29;102031.47;;;18.38;50.25
60355;BME280;46198;51.464;-0.066;2023-04-09T12:11:07;102030.53;;;18.61;52.73
60355;BME280;46198;51.464;-0.066;2023-04-09T12:13:36;102036.88;;;18.61;47.57
60355;BME280;46198;51.464;-0.066;2023-04-09T12:16:11;102029.75;;;18.89;49.40
60355;BME280;46198;51.464;-0.066;2023-04-09T12:18:40;102024.69;;;18.98;49.03
60355;BME280;46198;51.464;-0.066;2023-04-09T12:21:08;102018.41;;;19.02;48.08
60355;BME280;46198;51.464;-0.066;2023-04-09T12:23:36;102005.75;;;19.01;48.10
60355;BME280;46198;51.464;-0.066;2023-04-09T12:26:04;102007.09;;;19.16;49.03
60355;BME280;46198;51.464;-0.066;2023-04-09T12:28:57;101997.09;;;19.10;47.36
60355;BME280;46198;51.464;-0.066;2023-04-09T12:31:27;102006.34;;;19.20;48.54
60355;BME280;46198;51.464;-0.066;2023-04-09T12:33:55;101999.06;;;19.65;49.09
60355;BME280;46198;51.464;-0.066;2023-04-09T12:36:23;102001.78;;;19.26;45.93
60355;BME280;46198;51.464;-0.066;2023-04-09T12:38:52;101993.50;;;19.77;47.30
60355;BME280;46198;51.464;-0.066;2023-04-09T12:41:20;102003.59;;;19.37;44.38
60355;BME280;46198;51.464;-0.066;2023-04-09T12:43:48;101998.09;;;19.88;48.72
60355;BME280;46198;51.464;-0.066;2023-04-09T12:46:17;101994.09;;;19.79;46.91
60355;BME280;46198;51.464;-0.066;2023-04-09T12:48:46;101988.69;;;20.06;45.00
60355;BME280;46198;51.464;-0.066;2023-04-09T12:51:14;101975.59;;;20.18;46.06
60355;BME280;46198;51.464;-0.066;2023-04-09T12:53:42;101978.94;;;20.20;45.75
60355;BME280;46198;51.464;-0.066;2023-04-09T12:56:10;101968.03;;;20.30;45.51
60355;BME280;46198;51.464;-0.066;2023-04-09T12:58:38;101975.38;;;20.25;43.32
60355;BME280;46198;51.464;-0.066;2023-04-09T13:01:06;101964.31;;;20.42;44.93
60355;BME280;46198;51.464;-0.066;2023-04-09T13:03:35;101964.25;;;20.36;44.86
60355;BME280;46198;51.464;-0.066;2023-04-09T13:06:05;101968.34;;;20.56;45.57
60355;BME280;46198;51.464;-0.066;2023-04-09T13:08:33;101958.41;;;20.55;43.02
60355;BME280;46198;51.464;-0.066;2023-04-09T13:11:01;101957.50;;;20.49;41.64